createdAt,value
2017-12-08T00:00:07.095Z,97.97
2017-12-08T00:01:07.109Z,98.16
2017-12-08T00:02:07.120Z,97.78
2017-12-08T00:03:07.146Z,97.31
2017-12-08T00:04:07.148Z,97.97
2017-12-08T00:05:07.159Z,97.69
2017-12-08T00:06:07.173Z,97.50
2017-12-08T00:07:07.188Z,97.31
2017-12-08T00:08:07.207Z,97.50
2017-12-08T00:09:07.217Z,97.31
2017-12-08T00:10:07.236Z,97.50
2017-12-08T00:11:07.239Z,97.41
2017-12-08T00:12:07.250Z,97.50
2017-12-08T00:13:07.264Z,97.02
2017-12-08T00:14:07.277Z,96.93
2017-12-08T00:15:07.301Z,97.50
2017-12-08T00:16:07.304Z,97.50
2017-12-08T00:17:07.320Z,96.83
2017-12-08T00:18:07.330Z,96.55
2017-12-08T00:19:07.343Z,97.02
2017-12-08T00:20:07.355Z,97.02
2017-12-08T00:21:07.367Z,96.93
2017-12-08T00:22:07.381Z,97.41
2017-12-08T00:23:07.394Z,96.74
2017-12-08T00:24:07.406Z,96.55
2017-12-08T00:25:07.423Z,96.64
2017-12-08T00:26:07.432Z,96.93
2017-12-08T00:27:07.447Z,96.74
2017-12-08T00:28:07.461Z,96.74
2017-12-08T00:29:07.471Z,96.74
2017-12-08T00:30:07.484Z,96.74
2017-12-08T00:31:07.497Z,97.02
2017-12-08T00:32:07.512Z,97.41
2017-12-08T00:33:07.523Z,96.74
2017-12-08T00:34:07.534Z,97.02
2017-12-08T00:35:07.549Z,96.83
2017-12-08T00:36:07.561Z,96.93
2017-12-08T00:37:07.572Z,96.74
2017-12-08T00:38:07.588Z,95.70
2017-12-08T00:39:07.603Z,96.08
2017-12-08T00:40:07.610Z,96.08
2017-12-08T00:41:07.624Z,96.17
2017-12-08T00:42:07.638Z,96.74
2017-12-08T00:43:07.649Z,96.17
2017-12-08T00:44:07.666Z,96.93
2017-12-08T00:45:07.674Z,97.12
2017-12-08T00:46:07.697Z,96.74
2017-12-08T00:47:07.700Z,96.64
2017-12-08T00:48:07.714Z,96.17
2017-12-08T00:49:07.726Z,96.36
2017-12-08T00:50:07.739Z,96.36
2017-12-08T00:51:07.752Z,96.26
2017-12-08T00:52:07.763Z,96.74
2017-12-08T00:53:07.778Z,96.93
2017-12-08T00:54:07.791Z,96.83
2017-12-08T00:55:07.805Z,96.93
2017-12-08T00:56:07.818Z,96.74
2017-12-08T00:57:07.835Z,96.36
2017-12-08T00:58:07.843Z,96.08
2017-12-08T00:59:07.855Z,96.74
2017-12-08T01:00:07.867Z,96.97
2017-12-08T01:01:07.885Z,97.17
2017-12-08T01:02:07.891Z,96.69
2017-12-08T01:03:07.908Z,96.78
2017-12-08T01:04:07.919Z,96.50
2017-12-08T01:05:07.936Z,96.50
2017-12-08T01:06:07.943Z,96.88
2017-12-08T01:07:07.957Z,96.97
2017-12-08T01:08:07.968Z,97.45
2017-12-08T01:09:07.981Z,97.45
2017-12-08T01:10:07.995Z,97.07
2017-12-08T01:11:08.007Z,96.88
2017-12-08T01:12:08.023Z,97.26
2017-12-08T01:13:08.033Z,97.26
2017-12-08T01:14:08.046Z,97.64
2017-12-08T01:15:08.058Z,97.26
2017-12-08T01:16:08.070Z,97.26
2017-12-08T01:17:08.082Z,97.26
2017-12-08T01:18:08.095Z,97.74
2017-12-08T01:19:08.130Z,97.55
2017-12-08T01:20:08.122Z,97.26
2017-12-08T01:21:08.135Z,97.74
2017-12-08T01:22:08.146Z,97.55
2017-12-08T01:23:08.158Z,97.55
2017-12-08T01:24:08.173Z,97.45
2017-12-08T01:25:08.185Z,97.55
2017-12-08T01:26:08.196Z,97.17
2017-12-08T01:27:08.208Z,97.36
2017-12-08T01:28:08.222Z,97.26
2017-12-08T01:29:08.234Z,97.26
2017-12-08T01:30:08.279Z,97.26
2017-12-08T01:31:08.259Z,97.36
2017-12-08T01:32:08.274Z,96.69
2017-12-08T01:33:08.283Z,97.07
2017-12-08T01:34:08.302Z,97.26
2017-12-08T01:35:08.312Z,97.55
2017-12-08T01:36:08.320Z,97.45
2017-12-08T01:37:08.333Z,96.88
2017-12-08T01:38:08.347Z,96.69
2017-12-08T01:39:08.359Z,97.26
2017-12-08T01:40:08.373Z,96.50
2017-12-08T01:41:08.383Z,96.50
2017-12-08T01:42:08.397Z,96.83
2017-12-08T01:43:08.410Z,96.88
2017-12-08T01:44:08.421Z,96.03
2017-12-08T01:45:08.433Z,96.83
2017-12-08T01:46:08.452Z,96.88
2017-12-08T01:47:08.459Z,96.22
2017-12-08T01:48:08.471Z,96.12
2017-12-08T01:49:08.487Z,96.97
2017-12-08T01:50:08.496Z,96.92
2017-12-08T01:51:08.508Z,96.17
2017-12-08T01:52:08.521Z,96.17
2017-12-08T01:53:08.532Z,96.17
2017-12-08T01:54:08.547Z,96.59
2017-12-08T01:55:08.557Z,96.55
2017-12-08T01:56:08.568Z,96.73
2017-12-08T01:57:08.582Z,96.92
2017-12-08T01:58:08.594Z,96.45
2017-12-08T01:59:08.610Z,96.64
2017-12-08T02:00:08.622Z,96.64
2017-12-08T02:01:08.633Z,96.64
2017-12-08T02:02:08.644Z,95.88
2017-12-08T02:03:08.659Z,95.79
2017-12-08T02:04:08.671Z,96.08
2017-12-08T02:05:08.681Z,95.41
2017-12-08T02:06:08.694Z,96.17
2017-12-08T02:07:08.712Z,95.79
2017-12-08T02:08:08.724Z,95.98
2017-12-08T02:09:08.731Z,95.98
2017-12-08T02:10:08.741Z,95.41
2017-12-08T02:11:08.754Z,95.93
2017-12-08T02:12:08.767Z,95.41
2017-12-08T02:13:08.778Z,95.88
2017-12-08T02:14:08.791Z,95.88
2017-12-08T02:15:08.803Z,95.60
2017-12-08T02:16:08.823Z,95.98
2017-12-08T02:17:08.828Z,95.60
2017-12-08T02:18:08.839Z,95.60
2017-12-08T02:19:08.852Z,95.98
2017-12-08T02:20:08.865Z,95.69
2017-12-08T02:21:08.977Z,95.60
2017-12-08T02:22:08.889Z,96.08
2017-12-08T02:23:08.905Z,95.22
2017-12-08T02:24:08.915Z,95.69
2017-12-08T02:25:08.927Z,95.41
2017-12-08T02:26:08.938Z,95.69
2017-12-08T02:27:08.954Z,95.98
2017-12-08T02:28:08.968Z,95.22
2017-12-08T02:29:08.976Z,95.98
2017-12-08T02:30:08.986Z,95.60
2017-12-08T02:31:08.998Z,95.79
2017-12-08T02:32:09.011Z,95.88
2017-12-08T02:33:09.025Z,95.79
2017-12-08T02:34:09.046Z,95.50
2017-12-08T02:35:09.049Z,95.60
2017-12-08T02:36:09.061Z,95.88
2017-12-08T02:37:09.072Z,96.17
2017-12-08T02:38:09.085Z,95.60
2017-12-08T02:39:09.102Z,95.50
2017-12-08T02:40:09.110Z,95.69
2017-12-08T02:41:09.123Z,95.31
2017-12-08T02:42:09.134Z,95.79
2017-12-08T02:43:09.147Z,94.37
2017-12-08T02:44:09.159Z,95.03
2017-12-08T02:45:09.171Z,94.37
2017-12-08T02:46:09.184Z,94.65
2017-12-08T02:47:09.199Z,94.37
2017-12-08T02:48:09.210Z,93.99
2017-12-08T02:49:09.224Z,93.70
2017-12-08T02:50:09.235Z,94.08
2017-12-08T02:51:09.247Z,94.08
2017-12-08T02:52:09.259Z,93.80
2017-12-08T02:53:09.274Z,93.23
2017-12-08T02:54:09.282Z,93.13
2017-12-08T02:55:09.394Z,93.32
2017-12-08T02:56:09.305Z,93.70
2017-12-08T02:57:09.319Z,93.70
2017-12-08T02:58:09.329Z,94.08
2017-12-08T02:59:09.347Z,93.99
2017-12-08T03:00:09.355Z,93.89
2017-12-08T03:01:09.370Z,93.80
2017-12-08T03:02:09.380Z,93.70
2017-12-08T03:03:09.396Z,93.80
2017-12-08T03:04:09.405Z,93.70
2017-12-08T03:05:10.116Z,93.99
2017-12-08T03:06:09.428Z,93.13
2017-12-08T03:07:09.445Z,93.23
2017-12-08T03:08:09.451Z,92.94
2017-12-08T03:09:09.462Z,93.04
2017-12-08T03:10:09.476Z,92.57
2017-12-08T03:11:09.487Z,92.66
2017-12-08T03:12:09.501Z,92.18
2017-12-08T03:13:09.512Z,92.66
2017-12-08T03:14:09.525Z,92.47
2017-12-08T03:15:09.638Z,92.18
2017-12-08T03:16:09.553Z,93.23
2017-12-08T03:17:09.559Z,92.57
2017-12-08T03:18:09.574Z,92.47
2017-12-08T03:19:09.587Z,91.99
2017-12-08T03:20:09.598Z,92.38
2017-12-08T03:21:09.648Z,92.94
2017-12-08T03:22:09.626Z,92.57
2017-12-08T03:23:09.637Z,91.99
2017-12-08T03:24:09.710Z,91.99
2017-12-08T03:25:09.664Z,91.61
2017-12-08T03:26:09.673Z,92.09
2017-12-08T03:27:09.684Z,92.57
2017-12-08T03:28:09.699Z,92.94
2017-12-08T03:29:09.713Z,92.85
2017-12-08T03:30:09.720Z,92.85
2017-12-08T03:31:09.735Z,93.80
2017-12-08T03:32:09.771Z,93.04
2017-12-08T03:33:09.757Z,92.66
2017-12-08T03:34:09.769Z,93.04
2017-12-08T03:35:09.790Z,93.13
2017-12-08T03:36:09.797Z,92.85
2017-12-08T03:37:09.816Z,93.80
2017-12-08T03:38:09.817Z,93.70
2017-12-08T03:39:09.830Z,93.80
2017-12-08T03:40:09.845Z,93.61
2017-12-08T03:41:09.858Z,93.89
2017-12-08T03:42:09.869Z,93.70
2017-12-08T03:43:09.880Z,93.32
2017-12-08T03:44:09.893Z,93.51
2017-12-08T03:45:09.956Z,92.94
2017-12-08T03:46:09.919Z,93.23
2017-12-08T03:47:09.930Z,93.04
2017-12-08T03:48:09.941Z,93.04
2017-12-08T03:49:09.955Z,93.70
2017-12-08T03:50:09.969Z,93.99
2017-12-08T03:51:09.993Z,93.61
2017-12-08T03:52:09.988Z,93.51
2017-12-08T03:53:10.004Z,93.89
2017-12-08T03:54:10.017Z,93.32
2017-12-08T03:55:10.029Z,94.08
2017-12-08T03:56:10.039Z,93.70
2017-12-08T03:57:10.052Z,94.46
2017-12-08T03:58:10.063Z,93.99
2017-12-08T03:59:10.076Z,93.61
2017-12-08T04:00:10.086Z,93.89
2017-12-08T04:01:10.100Z,93.80
2017-12-08T04:02:10.113Z,93.23
2017-12-08T04:03:10.125Z,92.76
2017-12-08T04:04:10.139Z,92.94
2017-12-08T04:05:10.150Z,92.76
2017-12-08T04:06:10.162Z,92.85
2017-12-08T04:07:10.177Z,92.94
2017-12-08T04:08:10.193Z,93.23
2017-12-08T04:09:10.198Z,92.66
2017-12-08T04:10:10.211Z,93.04
2017-12-08T04:11:10.223Z,92.94
2017-12-08T04:12:10.234Z,92.66
2017-12-08T04:13:10.247Z,92.94
2017-12-08T04:14:10.259Z,93.23
2017-12-08T04:15:10.273Z,92.94
2017-12-08T04:16:10.285Z,93.13
2017-12-08T04:17:10.297Z,92.66
2017-12-08T04:18:10.324Z,92.94
2017-12-08T04:19:10.318Z,92.76
2017-12-08T04:20:10.334Z,93.13
2017-12-08T04:21:10.345Z,92.28
2017-12-08T04:22:10.355Z,93.13
2017-12-08T04:23:10.369Z,92.18
2017-12-08T04:24:10.381Z,92.38
2017-12-08T04:25:10.390Z,92.28
2017-12-08T04:26:10.397Z,92.47
2017-12-08T04:27:10.410Z,92.66
2017-12-08T04:28:10.420Z,92.28
2017-12-08T04:29:10.435Z,92.28
2017-12-08T04:30:10.446Z,92.38
2017-12-08T04:31:10.459Z,92.38
2017-12-08T04:32:10.480Z,92.28
2017-12-08T04:33:10.484Z,91.71
2017-12-08T04:34:10.495Z,91.90
2017-12-08T04:35:10.507Z,92.47
2017-12-08T04:36:10.520Z,92.47
2017-12-08T04:37:10.531Z,92.09
2017-12-08T04:38:10.546Z,92.18
2017-12-08T04:39:10.556Z,91.99
2017-12-08T04:40:10.569Z,91.90
2017-12-08T04:41:10.584Z,92.28
2017-12-08T04:42:10.592Z,91.90
2017-12-08T04:43:10.605Z,91.52
2017-12-08T04:44:10.618Z,90.95
2017-12-08T04:45:10.638Z,90.95
2017-12-08T04:46:10.650Z,91.42
2017-12-08T04:47:10.656Z,90.95
2017-12-08T04:48:10.669Z,90.67
2017-12-08T04:49:10.678Z,90.67
2017-12-08T04:50:10.690Z,90.57
2017-12-08T04:51:10.706Z,90.29
2017-12-08T04:52:10.716Z,90.57
2017-12-08T04:53:10.726Z,90.76
2017-12-08T04:54:10.744Z,90.48
2017-12-08T04:55:10.751Z,90.38
2017-12-08T04:56:10.764Z,90.57
2017-12-08T04:57:10.774Z,90.57
2017-12-08T04:58:10.788Z,90.86
2017-12-08T04:59:10.804Z,90.57
2017-12-08T05:00:10.813Z,90.76
2017-12-08T05:01:10.822Z,90.38
2017-12-08T05:02:10.833Z,90.57
2017-12-08T05:03:10.847Z,90.48
2017-12-08T05:04:10.871Z,89.81
2017-12-08T05:05:10.871Z,90.38
2017-12-08T05:06:10.882Z,90.38
2017-12-08T05:07:10.895Z,89.91
2017-12-08T05:08:10.907Z,89.43
2017-12-08T05:09:10.920Z,90.19
2017-12-08T05:10:10.938Z,90.05
2017-12-08T05:11:10.941Z,89.53
2017-12-08T05:12:10.954Z,89.53
2017-12-08T05:13:10.964Z,89.77
2017-12-08T05:14:10.977Z,89.20
2017-12-08T05:15:10.988Z,89.77
2017-12-08T05:16:10.998Z,89.86
2017-12-08T05:17:11.011Z,90.43
2017-12-08T05:18:11.023Z,90.05
2017-12-08T05:19:11.035Z,89.96
2017-12-08T05:20:11.044Z,89.58
2017-12-08T05:21:11.062Z,89.01
2017-12-08T05:22:11.069Z,89.86
2017-12-08T05:23:11.080Z,88.82
2017-12-08T05:24:11.093Z,89.20
2017-12-08T05:25:11.107Z,89.67
2017-12-08T05:26:11.115Z,89.20
2017-12-08T05:27:11.130Z,89.25
2017-12-08T05:28:11.140Z,88.82
2017-12-08T05:29:11.149Z,89.01
2017-12-08T05:30:11.161Z,89.53
2017-12-08T05:31:11.173Z,89.58
2017-12-08T05:32:11.185Z,89.29
2017-12-08T05:33:11.198Z,89.29
2017-12-08T05:34:11.207Z,89.58
2017-12-08T05:35:11.220Z,89.67
2017-12-08T05:36:11.237Z,89.77
2017-12-08T05:37:11.241Z,89.39
2017-12-08T05:38:11.272Z,89.86
2017-12-08T05:39:11.266Z,89.67
2017-12-08T05:40:11.278Z,89.86
2017-12-08T05:41:11.287Z,89.86
2017-12-08T05:42:11.301Z,89.48
2017-12-08T05:43:11.313Z,89.39
2017-12-08T05:44:11.325Z,89.11
2017-12-08T05:45:11.338Z,89.20
2017-12-08T05:46:11.346Z,88.92
2017-12-08T05:47:11.368Z,88.73
2017-12-08T05:48:11.372Z,88.63
2017-12-08T05:49:11.381Z,88.16
2017-12-08T05:50:11.395Z,88.25
2017-12-08T05:51:11.407Z,88.16
2017-12-08T05:52:11.425Z,88.35
2017-12-08T05:53:11.426Z,89.01
2017-12-08T05:54:11.444Z,88.25
2017-12-08T05:55:11.480Z,88.16
2017-12-08T05:56:11.465Z,87.97
2017-12-08T05:57:11.475Z,88.35
2017-12-08T05:58:11.487Z,88.82
2017-12-08T05:59:11.498Z,89.01
2017-12-08T06:00:11.509Z,88.73
2017-12-08T06:01:11.522Z,88.54
2017-12-08T06:02:11.530Z,88.73
2017-12-08T06:03:11.548Z,88.16
2017-12-08T06:04:11.558Z,88.16
2017-12-08T06:05:11.566Z,88.44
2017-12-08T06:06:11.578Z,88.54
2017-12-08T06:07:11.591Z,88.16
2017-12-08T06:08:11.602Z,88.06
2017-12-08T06:09:11.613Z,88.73
2017-12-08T06:10:11.622Z,88.35
2017-12-08T06:11:11.634Z,88.63
2017-12-08T06:12:11.653Z,88.54
2017-12-08T06:13:11.657Z,88.73
2017-12-08T06:14:11.674Z,88.54
2017-12-08T06:15:11.683Z,88.82
2017-12-08T06:16:11.692Z,88.54
2017-12-08T06:17:11.703Z,89.11
2017-12-08T06:18:11.719Z,88.35
2017-12-08T06:19:11.739Z,87.97
2017-12-08T06:20:11.738Z,88.30
2017-12-08T06:21:11.751Z,88.92
2017-12-08T06:22:11.762Z,88.68
2017-12-08T06:23:11.774Z,88.73
2017-12-08T06:24:11.790Z,88.73
2017-12-08T06:25:11.795Z,89.15
2017-12-08T06:26:11.809Z,89.06
2017-12-08T06:27:11.818Z,89.44
2017-12-08T06:28:11.833Z,89.44
2017-12-08T06:29:11.840Z,89.34
2017-12-08T06:30:11.851Z,88.96
2017-12-08T06:31:11.863Z,88.78
2017-12-08T06:32:11.880Z,88.87
2017-12-08T06:33:11.886Z,88.68
2017-12-08T06:34:11.899Z,88.59
2017-12-08T06:35:11.912Z,89.44
2017-12-08T06:36:11.926Z,89.34
2017-12-08T06:37:11.931Z,89.53
2017-12-08T06:38:11.941Z,88.78
2017-12-08T06:39:11.962Z,89.34
2017-12-08T06:40:11.966Z,89.25
2017-12-08T06:41:11.977Z,88.78
2017-12-08T06:42:11.987Z,88.78
2017-12-08T06:43:12.000Z,89.15
2017-12-08T06:44:12.012Z,89.44
2017-12-08T06:45:12.026Z,88.68
2017-12-08T06:46:12.032Z,89.15
2017-12-08T06:47:12.046Z,89.44
2017-12-08T06:48:12.055Z,88.68
2017-12-08T06:49:12.071Z,88.68
2017-12-08T06:50:12.086Z,88.40
2017-12-08T06:51:12.092Z,88.30
2017-12-08T06:52:12.102Z,89.34
2017-12-08T06:53:12.112Z,89.15
2017-12-08T06:54:12.225Z,88.68
2017-12-08T06:55:12.137Z,88.96
2017-12-08T06:56:12.167Z,88.78
2017-12-08T06:57:12.160Z,88.78
2017-12-08T06:58:12.169Z,88.68
2017-12-08T06:59:12.184Z,88.68
2017-12-08T07:00:12.191Z,88.78
2017-12-08T07:01:12.203Z,89.15
2017-12-08T07:02:12.214Z,89.34
2017-12-08T07:03:12.226Z,89.25
2017-12-08T07:04:12.238Z,89.34
2017-12-08T07:05:12.251Z,89.15
2017-12-08T07:06:12.286Z,89.15
2017-12-08T07:07:12.271Z,89.34
2017-12-08T07:08:12.284Z,88.68
2017-12-08T07:09:12.314Z,89.15
2017-12-08T07:10:12.304Z,89.44
2017-12-08T07:11:12.328Z,89.53
2017-12-08T07:12:12.329Z,89.25
2017-12-08T07:13:12.338Z,88.96
2017-12-08T07:14:12.349Z,89.15
2017-12-08T07:15:12.368Z,88.96
2017-12-08T07:16:12.373Z,89.15
2017-12-08T07:17:12.447Z,88.68
2017-12-08T07:18:12.399Z,89.44
2017-12-08T07:19:12.407Z,89.15
2017-12-08T07:20:12.416Z,89.25
2017-12-08T07:21:12.433Z,89.25
2017-12-08T07:22:12.439Z,89.44
2017-12-08T07:23:12.455Z,88.49
2017-12-08T07:24:12.465Z,88.87
2017-12-08T07:25:12.488Z,88.87
2017-12-08T07:26:12.492Z,89.44
2017-12-08T07:27:12.770Z,89.34
2017-12-08T07:28:13.230Z,88.02
2017-12-08T07:30:13.369Z,87.35
2017-12-08T07:31:12.779Z,87.64
2017-12-08T07:32:12.798Z,87.83
2017-12-08T07:33:12.642Z,88.02
2017-12-08T07:34:13.512Z,87.83
2017-12-08T07:35:13.073Z,88.30
2017-12-08T07:36:13.241Z,88.30
2017-12-08T07:37:13.270Z,87.64
2017-12-08T07:38:13.456Z,88.30
2017-12-08T07:39:12.634Z,88.30
2017-12-08T07:40:13.149Z,88.21
2017-12-08T07:41:13.392Z,88.21
2017-12-08T07:42:12.811Z,87.92
2017-12-08T07:43:12.677Z,88.21
2017-12-08T07:44:12.704Z,87.92
2017-12-08T07:45:12.709Z,88.21
2017-12-08T07:46:12.735Z,87.54
2017-12-08T07:47:12.730Z,88.02
2017-12-08T07:48:12.735Z,87.83
2017-12-08T07:49:12.753Z,88.11
2017-12-08T07:50:12.755Z,88.11
2017-12-08T07:51:12.770Z,87.83
2017-12-08T07:52:12.809Z,87.26
2017-12-08T07:53:12.794Z,87.26
2017-12-08T07:54:12.801Z,88.21
2017-12-08T07:55:12.813Z,88.02
2017-12-08T07:56:12.829Z,87.83
2017-12-08T07:57:12.846Z,87.64
2017-12-08T07:58:12.868Z,87.35
2017-12-08T07:59:12.859Z,86.98
2017-12-08T08:00:12.874Z,87.54
2017-12-08T08:01:12.892Z,87.73
2017-12-08T08:02:12.895Z,88.11
2017-12-08T08:03:12.904Z,87.07
2017-12-08T08:04:12.917Z,87.07
2017-12-08T08:05:12.958Z,87.54
2017-12-08T08:06:12.953Z,87.26
2017-12-08T08:07:12.950Z,86.79
2017-12-08T08:08:12.966Z,87.35
2017-12-08T08:09:12.989Z,87.07
2017-12-08T08:10:13.316Z,86.98
2017-12-08T08:11:13.047Z,86.98
2017-12-08T08:12:13.010Z,86.60
2017-12-08T08:13:13.020Z,86.60
2017-12-08T08:14:13.030Z,86.50
2017-12-08T08:15:13.407Z,86.22
2017-12-08T08:16:13.052Z,86.31
2017-12-08T08:17:13.891Z,86.60
2017-12-08T08:18:13.079Z,86.03
2017-12-08T08:19:13.943Z,86.03
2017-12-08T08:20:13.101Z,85.17
2017-12-08T08:21:13.112Z,84.89
2017-12-08T08:22:13.122Z,84.99
2017-12-08T08:23:13.140Z,85.17
2017-12-08T08:24:13.146Z,85.36
2017-12-08T08:25:13.452Z,85.55
2017-12-08T08:26:13.181Z,84.80
2017-12-08T08:27:13.184Z,84.89
2017-12-08T08:28:13.191Z,84.80
2017-12-08T08:29:13.227Z,84.80
2017-12-08T08:30:13.203Z,84.61
2017-12-08T08:31:13.231Z,83.75
2017-12-08T08:32:13.229Z,84.70
2017-12-08T08:33:13.236Z,83.75
2017-12-08T08:34:13.262Z,84.61
2017-12-08T08:35:13.373Z,83.94
2017-12-08T08:36:13.271Z,83.51
2017-12-08T08:37:13.286Z,83.04
2017-12-08T08:38:13.312Z,83.09
2017-12-08T08:39:13.308Z,83.75
2017-12-08T08:40:13.330Z,84.23
2017-12-08T08:41:13.328Z,84.42
2017-12-08T08:42:13.341Z,84.27
2017-12-08T08:43:13.395Z,85.36
2017-12-08T08:44:13.361Z,84.89
2017-12-08T08:45:13.373Z,84.80
2017-12-08T08:46:13.384Z,84.74
2017-12-08T08:47:13.396Z,84.70
2017-12-08T08:48:13.411Z,84.55
2017-12-08T08:49:13.420Z,84.55
2017-12-08T08:50:13.436Z,83.75
2017-12-08T08:51:13.453Z,84.42
2017-12-08T08:52:13.913Z,85.36
2017-12-08T08:53:13.467Z,85.17
2017-12-08T08:54:13.476Z,85.36
2017-12-08T08:55:13.488Z,84.32
2017-12-08T08:56:13.934Z,85.08
2017-12-08T08:57:13.519Z,84.80
2017-12-08T08:58:13.523Z,84.70
2017-12-08T08:59:13.543Z,84.80
2017-12-08T09:00:13.557Z,84.42
2017-12-08T09:01:13.557Z,83.94
2017-12-08T09:02:13.568Z,84.80
2017-12-08T09:03:13.587Z,84.80
2017-12-08T09:04:13.596Z,84.51
2017-12-08T09:05:13.624Z,84.32
2017-12-08T09:06:13.624Z,84.32
2017-12-08T09:07:13.626Z,84.61
2017-12-08T09:08:13.641Z,84.80
2017-12-08T09:09:13.658Z,84.89
2017-12-08T09:10:13.663Z,84.99
2017-12-08T09:11:13.678Z,85.27
2017-12-08T09:12:13.964Z,85.13
2017-12-08T09:13:13.715Z,85.41
2017-12-08T09:14:13.711Z,85.13
2017-12-08T09:15:13.719Z,84.61
2017-12-08T09:16:13.742Z,83.47
2017-12-08T09:17:13.744Z,84.42
2017-12-08T09:18:13.754Z,84.55
2017-12-08T09:19:13.768Z,84.84
2017-12-08T09:20:13.879Z,85.17
2017-12-08T09:21:13.802Z,85.36
2017-12-08T09:22:13.801Z,85.08
2017-12-08T09:23:13.834Z,83.94
2017-12-08T09:24:13.824Z,84.51
2017-12-08T09:25:13.835Z,84.32
2017-12-08T09:26:13.862Z,84.74
2017-12-08T09:27:13.863Z,83.98
2017-12-08T09:28:13.870Z,84.46
2017-12-08T09:29:13.882Z,84.84
2017-12-08T09:30:13.898Z,85.22
2017-12-08T09:31:13.909Z,84.89
2017-12-08T09:32:13.932Z,84.51
2017-12-08T09:33:13.927Z,85.08
2017-12-08T09:34:13.988Z,85.08
2017-12-08T09:35:13.953Z,85.36
2017-12-08T09:36:13.971Z,85.08
2017-12-08T09:37:13.977Z,86.60
2017-12-08T09:38:13.989Z,86.60
2017-12-08T09:39:13.996Z,86.79
2017-12-08T09:40:14.010Z,87.16
2017-12-08T09:41:14.020Z,87.16
2017-12-08T09:42:14.035Z,87.16
2017-12-08T09:43:16.713Z,87.73
2017-12-08T09:44:14.055Z,86.50
2017-12-08T09:45:14.065Z,87.07
2017-12-08T09:46:14.086Z,87.16
2017-12-08T09:47:17.430Z,87.16
2017-12-08T09:48:17.447Z,87.07
2017-12-08T09:49:16.544Z,87.26
2017-12-08T09:50:15.571Z,86.41
2017-12-08T09:51:14.658Z,86.79
2017-12-08T09:52:14.443Z,87.07
2017-12-08T09:53:15.751Z,86.88
2017-12-08T09:54:18.615Z,86.60
2017-12-08T09:55:14.179Z,86.03
2017-12-08T09:56:14.192Z,86.03
2017-12-08T09:57:14.200Z,86.69
2017-12-08T09:58:14.213Z,86.31
2017-12-08T09:59:14.236Z,86.31
2017-12-08T10:00:14.245Z,85.93
2017-12-08T10:01:14.259Z,85.36
2017-12-08T10:02:14.257Z,85.74
2017-12-08T10:03:14.313Z,85.65
2017-12-08T10:04:14.476Z,84.99
2017-12-08T10:05:14.292Z,85.55
2017-12-08T10:06:14.429Z,85.55
2017-12-08T10:07:14.314Z,85.84
2017-12-08T10:08:14.379Z,85.84
2017-12-08T10:09:14.335Z,85.74
2017-12-08T10:10:14.347Z,85.74
2017-12-08T10:11:14.358Z,86.22
2017-12-08T10:12:14.373Z,86.03
2017-12-08T10:13:14.384Z,85.93
2017-12-08T10:14:14.392Z,85.65
2017-12-08T10:15:14.442Z,85.93
2017-12-08T10:16:14.416Z,85.93
2017-12-08T10:17:14.427Z,85.93
2017-12-08T10:18:14.449Z,85.65
2017-12-08T10:19:14.460Z,85.65
2017-12-08T10:20:14.462Z,85.93
2017-12-08T10:21:14.474Z,86.31
2017-12-08T10:22:14.482Z,86.98
2017-12-08T10:23:14.513Z,87.54
2017-12-08T10:24:14.515Z,87.16
2017-12-08T10:25:14.547Z,88.02
2017-12-08T10:26:14.535Z,88.11
2017-12-08T10:27:14.761Z,88.21
2017-12-08T10:28:14.551Z,88.30
2017-12-08T10:29:14.564Z,89.72
2017-12-08T10:30:14.577Z,90.67
2017-12-08T10:31:14.598Z,90.86
2017-12-08T10:32:14.599Z,91.71
2017-12-08T10:33:14.606Z,92.09
2017-12-08T10:34:14.616Z,91.95
2017-12-08T10:35:14.632Z,92.33
2017-12-08T10:36:14.640Z,92.90
2017-12-08T10:37:14.666Z,92.43
2017-12-08T10:38:14.675Z,93.37
2017-12-08T10:39:14.679Z,93.46
2017-12-08T10:40:14.713Z,93.56
2017-12-08T10:41:14.697Z,93.94
2017-12-08T10:42:14.706Z,94.32
2017-12-08T10:43:14.731Z,94.60
2017-12-08T10:44:14.747Z,94.32
2017-12-08T10:45:15.893Z,94.70
2017-12-08T10:46:14.757Z,94.32
2017-12-08T10:47:14.775Z,95.07
2017-12-08T10:48:14.790Z,95.55
2017-12-08T10:49:14.778Z,95.64
2017-12-08T10:50:14.980Z,94.13
2017-12-08T10:51:14.802Z,94.13
2017-12-08T10:52:15.220Z,94.60
2017-12-08T10:53:14.882Z,94.51
2017-12-08T10:55:14.847Z,94.23
2017-12-08T10:56:14.872Z,94.23
2017-12-08T10:57:14.872Z,93.89
2017-12-08T10:58:14.880Z,93.61
2017-12-08T10:59:14.889Z,93.94
2017-12-08T11:00:14.899Z,93.56
2017-12-08T11:01:14.909Z,92.94
2017-12-08T11:02:14.919Z,93.13
2017-12-08T11:03:15.044Z,93.61
2017-12-08T11:04:14.948Z,93.13
2017-12-08T11:05:14.955Z,92.85
2017-12-08T11:07:14.982Z,92.85
2017-12-08T11:08:14.991Z,92.47
2017-12-08T11:09:15.001Z,93.42
2017-12-08T11:10:15.016Z,92.47
2017-12-08T11:11:15.018Z,92.85
2017-12-08T11:12:15.031Z,92.85
2017-12-08T11:13:15.044Z,92.47
2017-12-08T11:14:15.057Z,92.94
2017-12-08T11:15:15.062Z,93.13
2017-12-08T11:16:15.131Z,94.18
2017-12-08T11:17:15.089Z,93.99
2017-12-08T11:18:15.106Z,92.66
2017-12-08T11:19:15.107Z,92.57
2017-12-08T11:20:15.118Z,93.13
2017-12-08T11:22:15.135Z,92.94
2017-12-08T11:23:15.149Z,92.94
2017-12-08T11:24:15.161Z,92.94
2017-12-08T11:25:15.168Z,93.42
2017-12-08T11:26:15.179Z,93.42
2017-12-08T11:27:15.199Z,92.94
2017-12-08T11:29:15.211Z,94.18
2017-12-08T11:30:15.226Z,94.27
2017-12-08T11:31:15.232Z,93.51
2017-12-08T11:32:15.737Z,93.61
2017-12-08T11:33:15.298Z,92.94
2017-12-08T11:34:15.266Z,92.94
2017-12-08T11:35:15.277Z,92.57
2017-12-08T11:36:15.287Z,92.47
2017-12-08T11:37:15.308Z,93.04
2017-12-08T11:38:15.320Z,93.51
2017-12-08T11:39:15.318Z,93.80
2017-12-08T11:40:15.365Z,93.13
2017-12-08T11:41:15.477Z,93.61
2017-12-08T11:42:15.388Z,93.99
2017-12-08T11:43:15.366Z,93.80
2017-12-08T11:44:15.419Z,92.57
2017-12-08T11:45:15.387Z,92.76
2017-12-08T11:46:15.391Z,93.13
2017-12-08T11:47:15.406Z,93.04
2017-12-08T11:48:15.415Z,93.13
2017-12-08T11:49:15.429Z,92.94
2017-12-08T11:50:15.435Z,93.70
2017-12-08T11:51:15.450Z,93.61
2017-12-08T11:52:15.458Z,93.13
2017-12-08T11:53:15.471Z,93.42
2017-12-08T11:54:15.485Z,92.47
2017-12-08T11:55:15.490Z,93.23
2017-12-08T11:56:15.501Z,93.04
2017-12-08T11:57:15.532Z,92.94
2017-12-08T11:58:15.547Z,92.57
2017-12-08T11:59:15.541Z,93.13
2017-12-08T12:00:15.546Z,93.23
2017-12-08T12:01:15.557Z,92.57
2017-12-08T12:02:15.618Z,92.76
2017-12-08T12:03:15.578Z,92.57
2017-12-08T12:04:15.607Z,92.57
2017-12-08T12:05:15.603Z,93.13
2017-12-08T12:06:15.614Z,92.66
2017-12-08T12:07:15.627Z,92.76
2017-12-08T12:08:15.633Z,92.66
2017-12-08T12:09:15.642Z,92.38
2017-12-08T12:10:15.653Z,92.38
2017-12-08T12:11:15.670Z,92.57
2017-12-08T12:12:15.677Z,92.66
2017-12-08T12:13:15.701Z,92.94
2017-12-08T12:14:15.698Z,92.47
2017-12-08T12:15:15.707Z,93.13
2017-12-08T12:16:15.718Z,92.47
2017-12-08T12:17:15.738Z,92.66
2017-12-08T12:18:15.748Z,92.47
2017-12-08T12:19:15.752Z,92.57
2017-12-08T12:20:15.762Z,92.38
2017-12-08T12:21:15.791Z,92.57
2017-12-08T12:22:15.783Z,92.57
2017-12-08T12:23:15.938Z,92.47
2017-12-08T12:24:15.838Z,93.23
2017-12-08T12:25:15.822Z,92.94
2017-12-08T12:26:15.849Z,93.80
2017-12-08T12:27:15.843Z,93.61
2017-12-08T12:28:15.858Z,93.61
2017-12-08T12:29:15.871Z,93.32
2017-12-08T12:30:15.869Z,93.23
2017-12-08T12:31:15.928Z,92.94
2017-12-08T12:33:15.908Z,93.61
2017-12-08T12:34:16.090Z,93.61
2017-12-08T12:35:15.928Z,92.94
2017-12-08T12:36:15.944Z,93.13
2017-12-08T12:37:15.951Z,92.38
2017-12-08T12:38:15.969Z,93.13
2017-12-08T12:39:15.971Z,92.38
2017-12-08T12:40:16.036Z,93.13
2017-12-08T12:41:15.990Z,93.13
2017-12-08T12:42:16.043Z,93.42
2017-12-08T12:43:16.023Z,92.57
2017-12-08T12:44:16.031Z,92.71
2017-12-08T12:45:16.038Z,92.90
2017-12-08T12:46:16.050Z,92.90
2017-12-08T12:47:16.081Z,92.52
2017-12-08T12:48:16.073Z,92.94
2017-12-08T12:49:16.077Z,92.76
2017-12-08T12:50:16.090Z,93.04
2017-12-08T12:51:16.165Z,93.13
2017-12-08T12:52:16.119Z,92.94
2017-12-08T12:53:16.121Z,92.85
2017-12-08T12:54:16.150Z,92.85
2017-12-08T12:55:16.143Z,92.57
2017-12-08T12:56:16.152Z,92.85
2017-12-08T12:57:16.162Z,92.85
2017-12-08T12:58:16.239Z,92.19